Alexandria, MN

5:13 PM CDT on August 23, 2016 (GMT -0500)
Burgen Sunrise | | Change Station

Elev 1398 ft 45.86 °N, 95.35 °W | Updated 22 seconds ago

Overcast
Overcast
79.0 °F
Feels Like 83 °F
N
0.9
Wind Variable Wind from SSE
Gusts 4.9 mph

Today
High -- | Low -- °F
--% Chance of Precip.
Yesterday
High -- | Low -- °F
Precip. -- in
Pressure 29.83 in
Visibility 10.0 miles
Clouds Few 2300 ft
Mostly Cloudy 3000 ft
Overcast 3600 ft
Heat Index 83 °F
Dew Point 74 °F
Humidity 86%
Rainfall 0.00 in
Snow Depth Not available.
6:31 AM 8:15 PM
Waning Gibbous, 64% visible
METAR KAXN 232153Z AUTO 18013KT 10SM FEW023 BKN030 OVC036 27/21 A2985 RMK AO2 SLP102 T02670211
Pressure 29.83 in
Visibility 10.0 miles
Clouds Few 2300 ft
Mostly Cloudy 3000 ft
Overcast 3600 ft
Heat Index 83 °F
Dew Point 74 °F
Humidity 86%
Rainfall 0.00 in
Snow Depth Not available.
6:31 AM 8:15 PM
Waning Gibbous, 64% visible
METAR KAXN 232153Z AUTO 18013KT 10SM FEW023 BKN030 OVC036 27/21 A2985 RMK AO2 SLP102 T02670211

10-Day Weather Forecast

Almanac

Astronomy

Aug. 23, 2016 Rise Set
Actual Time
Civil Twilight
Nautical Twilight
Astronomical Twilight
Moon
Length of Visible Light
Length of Day
Tomorrow will be .
, % of the Moon is Illuminated

Today's Extremes

State Highs State Lows

Community

WunderPhotos

Upload Photos

1,934,476 photos uploaded!

WunderBlog® & News

Nearby

Air Quality

  Air Quality AQ Index Pollutant
Not available.

Snow Depth

Station Depth Elevation

Earthquake Activity

City Distance Mag. Time & Date
Minimum magnitude displayed is 2.5.

Coastal Water Temperatures

Place Temperature

Stations

Nearby Weather Stations

Station Location Temp. Windchill Dew Point Humidity Wind Precip. Elev Updated Type
                   

Watches & Warnings

There are currently no watches in effect.